Terminal Aerodrome Forecast
Issued by NWS

Home | Current Version | Previous Version | Graphics & Text | Print | Product List | Glossary On
Versions: 1 2 3 4 5 6 7 8 9 10 11 12 13 14 15
000
FTUS43 KOAX 201120
TAFCDR
TAF
KCDR 201120Z 2012/2112 25010KT P6SM BKN150
     FM201600 29018G30KT P6SM BKN150
     FM210000 29010KT P6SM BKN150
     FM210400 32011KT P6SM BKN040=

USA.gov is the U.S. government's official web portal to all federal, state and local government web resources and services.